Time;durP1;ratioP1;P1;durP2;ratioP2;P2;SDS_P1;SDS_P2;PMS_P1;PMS_P2;Temp;Humidity;BMP_temperature;BMP_pressure;BME280_temperature;BME280_humidity;BME280_pressure;Samples;Min_cycle;Max_cycle;Signal;HPM_P1;HPM_P2
2022/04/30 00:02:07;;;;;;;;;;;;;;;14.23;49.39;100551.22;4413982;32;20028;-80
2022/04/30 00:04:35;;;;;;;;;;;;;;;14.46;47.76;100537.59;4415209;32;19985;-82
2022/04/30 00:07:02;;;;;;;;;;;;;;;14.58;46.78;100535.16;4416029;32;19988;-81
2022/04/30 00:09:29;;;;;;;;;;;;;;;14.35;47.92;100542.66;4415498;32;19981;-81
2022/04/30 00:11:56;;;;;;;;;;;;;;;14.29;48.54;100546.06;4415746;32;19974;-80
2022/04/30 00:14:23;;;;;;;;;;;;;;;14.51;46.78;100541.16;4414395;32;19985;-82
2022/04/30 00:16:50;;;;;;;;;;;;;;;14.60;46.77;100541.25;4415461;32;19990;-80
2022/04/30 00:19:19;;;;;;;;;;;;;;;14.61;46.90;100543.00;4415489;32;19977;-80
2022/04/30 00:21:46;;;;;;;;;;;;;;;14.50;47.12;100539.38;4416042;32;20053;-79
2022/04/30 00:24:13;;;;;;;;;;;;;;;14.44;47.99;100534.97;4415566;32;19982;-80
2022/04/30 00:26:40;;;;;;;;;;;;;;;14.56;47.79;100534.28;4415131;32;20307;-79
2022/04/30 00:29:07;;;;;;;;;;;;;;;14.41;47.87;100535.81;4415616;32;19973;-80
2022/04/30 00:31:34;;;;;;;;;;;;;;;14.45;47.68;100541.91;4415456;32;20049;-81
2022/04/30 00:34:02;;;;;;;;;;;;;;;14.47;47.86;100534.12;4415257;32;20001;-80
2022/04/30 00:36:28;;;;;;;;;;;;;;;14.29;48.58;100546.06;4415107;32;19970;-81
2022/04/30 00:38:56;;;;;;;;;;;;;;;14.39;48.30;100537.53;4415037;32;20321;-80
2022/04/30 00:41:23;;;;;;;;;;;;;;;14.29;48.34;100535.66;4415280;32;19969;-81
2022/04/30 00:43:51;;;;;;;;;;;;;;;14.16;48.80;100545.03;4401819;32;19994;-80
2022/04/30 00:46:19;;;;;;;;;;;;;;;14.11;48.68;100538.91;4412941;32;19986;-79
2022/04/30 00:48:46;;;;;;;;;;;;;;;14.27;48.43;100542.59;4414506;32;20032;-79
2022/04/30 00:51:14;;;;;;;;;;;;;;;14.32;48.82;100556.53;4413706;32;20006;-79
2022/04/30 00:53:44;;;;;;;;;;;;;;;14.13;48.86;100549.34;4415647;32;20350;-80
2022/04/30 00:56:12;;;;;;;;;;;;;;;14.03;49.11;100547.47;4415089;32;19965;-80
2022/04/30 00:58:42;;;;;;;;;;;;;;;14.04;49.15;100549.22;4409258;32;19990;-80
2022/04/30 01:01:09;;;;;;;;;;;;;;;13.91;49.32;100549.06;4400353;32;20000;-81
2022/04/30 01:03:41;;;;;;;;;;;;;;;14.05;48.78;100550.97;4399554;32;20449;-79
2022/04/30 01:06:09;;;;;;;;;;;;;;;13.83;49.32;100555.87;4399770;32;19982;-79
2022/04/30 01:08:37;;;;;;;;;;;;;;;13.94;48.93;100554.31;4399875;32;19993;-79
2022/04/30 01:11:04;;;;;;;;;;;;;;;13.82;48.93;100554.16;4399855;32;20076;-80
2022/04/30 01:13:34;;;;;;;;;;;;;;;13.99;48.69;100550.91;4399033;32;19974;-79
2022/04/30 01:16:05;;;;;;;;;;;;;;;13.81;49.05;100552.37;4397629;32;19978;-81
2022/04/30 01:18:35;;;;;;;;;;;;;;;13.60;49.80;100557.28;4398748;32;20393;-79
2022/04/30 01:21:12;;;;;;;;;;;;;;;13.64;49.45;100546.06;4399882;32;20437;-80
2022/04/30 01:23:40;;;;;;;;;;;;;;;13.61;49.56;100543.41;4398484;32;20004;-81
2022/04/30 01:26:09;;;;;;;;;;;;;;;13.55;49.79;100538.13;4402032;32;20040;-81
2022/04/30 01:28:37;;;;;;;;;;;;;;;13.57;49.64;100536.44;4398071;32;20006;-81
2022/04/30 01:37:22;;;;;;;;;;;;;;;13.45;49.74;100543.16;4400328;32;20332;-78
2022/04/30 01:39:22;;;;;;;;;;;;;;;13.33;50.07;100545.56;4399778;32;19997;-80
2022/04/30 01:41:49;;;;;;;;;;;;;;;13.39;49.88;100545.66;4104880;32;10001028;-79
2022/04/30 01:44:19;;;;;;;;;;;;;;;13.42;50.00;100537.91;4406292;32;20049;-79
2022/04/30 01:46:46;;;;;;;;;;;;;;;13.20;50.57;100535.78;4401683;32;19981;-80
2022/04/30 01:49:16;;;;;;;;;;;;;;;13.09;50.73;100532.16;4380788;32;20036;-80
2022/04/30 01:51:50;;;;;;;;;;;;;;;13.16;50.79;100523.59;4371537;32;19978;-79
2022/04/30 01:54:17;;;;;;;;;;;;;;;13.24;50.33;100529.78;4369618;32;19990;-80
2022/04/30 01:56:45;;;;;;;;;;;;;;;13.07;50.67;100515.66;4368609;32;20110;-81
2022/04/30 01:59:13;;;;;;;;;;;;;;;13.03;50.83;100522.53;4368613;32;19990;-79
2022/04/30 02:01:40;;;;;;;;;;;;;;;12.84;51.13;100520.47;4368112;32;19983;-79
2022/04/30 02:04:07;;;;;;;;;;;;;;;12.83;51.42;100519.59;4368986;32;20139;-80
2022/04/30 02:06:34;;;;;;;;;;;;;;;12.81;51.35;100516.06;4371041;32;19986;-80
2022/04/30 02:09:01;;;;;;;;;;;;;;;12.94;50.97;100515.44;4371045;32;20404;-81
2022/04/30 02:11:28;;;;;;;;;;;;;;;13.03;50.27;100523.41;4383349;32;19994;-79
2022/04/30 02:13:56;;;;;;;;;;;;;;;12.87;50.81;100516.19;4365725;32;20415;-79
2022/04/30 02:16:23;;;;;;;;;;;;;;;12.87;50.79;100521.38;4363643;32;20461;-80
2022/04/30 02:18:51;;;;;;;;;;;;;;;12.69;51.02;100521.03;4383678;32;19983;-82
2022/04/30 02:21:20;;;;;;;;;;;;;;;12.90;50.73;100516.25;4370816;32;20004;-79
2022/04/30 02:23:50;;;;;;;;;;;;;;;12.94;50.07;100509.38;4368715;32;20034;-79
2022/04/30 02:26:17;;;;;;;;;;;;;;;12.97;50.09;100507.69;4356257;32;20615;-80
2022/04/30 02:28:44;;;;;;;;;;;;;;;12.71;51.10;100516.75;4368307;32;20009;-79
2022/04/30 02:31:25;;;;;;;;;;;;;;;12.68;51.06;100508.91;4370827;32;20488;-80
2022/04/30 02:33:55;;;;;;;;;;;;;;;12.65;51.25;100508.84;4381067;32;20114;-81
2022/04/30 02:36:27;;;;;;;;;;;;;;;12.43;51.73;100518.84;4371367;32;20014;-80
2022/04/30 02:38:55;;;;;;;;;;;;;;;12.65;51.39;100508.84;4371416;32;19998;-78
2022/04/30 02:41:22;;;;;;;;;;;;;;;12.50;51.59;100509.44;4382075;32;20355;-81
2022/04/30 02:43:50;;;;;;;;;;;;;;;12.57;51.12;100517.38;4383515;32;19983;-81
2022/04/30 02:46:17;;;;;;;;;;;;;;;12.34;51.62;100506.53;4383234;32;20657;-80
2022/04/30 02:48:44;;;;;;;;;;;;;;;12.41;51.56;100504.97;4367964;32;19999;-79
2022/04/30 02:51:11;;;;;;;;;;;;;;;12.37;51.50;100497.94;4366333;32;20109;-82
2022/04/30 02:53:41;;;;;;;;;;;;;;;12.30;51.56;100491.75;4368521;32;20025;-78
2022/04/30 02:56:11;;;;;;;;;;;;;;;12.31;51.72;100492.62;4366414;32;19998;-82
2022/04/30 03:01:24;;;;;;;;;;;;;;;12.30;51.79;100480.50;4376446;32;19979;-80
2022/04/30 03:03:51;;;;;;;;;;;;;;;12.14;52.10;100483.66;4383476;32;20061;-79
2022/04/30 03:06:18;;;;;;;;;;;;;;;12.13;52.11;100481.91;4383609;32;20006;-81
2022/04/30 03:08:47;;;;;;;;;;;;;;;12.25;51.45;100487.31;4383299;32;20018;-78
2022/04/30 03:11:14;;;;;;;;;;;;;;;12.34;51.29;100490.09;4382852;32;20004;-81
2022/04/30 03:13:40;;;;;;;;;;;;;;;12.28;51.44;100487.38;4366146;32;20000;-80
2022/04/30 03:21:42;;;;;;;;;;;;;;;12.16;51.59;100489.75;4368149;32;20743;-79
2022/04/30 03:24:09;;;;;;;;;;;;;;;12.22;51.60;100495.03;4375021;32;19982;-79
2022/04/30 03:26:36;;;;;;;;;;;;;;;12.20;51.61;100494.16;4383481;32;20370;-79
2022/04/30 03:29:03;;;;;;;;;;;;;;;12.14;51.64;100494.03;4383034;32;20053;-81
2022/04/30 03:31:30;;;;;;;;;;;;;;;11.93;52.36;100492.72;4382761;32;19992;-81
2022/04/30 03:33:57;;;;;;;;;;;;;;;11.86;52.40;100493.44;4383223;32;20022;-80
2022/04/30 03:36:24;;;;;;;;;;;;;;;12.10;51.64;100493.97;4385742;32;20009;-79
2022/04/30 03:38:51;;;;;;;;;;;;;;;12.06;51.67;100497.34;4384644;32;20034;-80
2022/04/30 03:41:18;;;;;;;;;;;;;;;11.99;52.20;100490.25;4385840;32;20020;-80
2022/04/30 03:43:45;;;;;;;;;;;;;;;11.89;52.64;100498.69;4385693;32;19975;-80
2022/04/30 03:46:12;;;;;;;;;;;;;;;12.04;51.80;100488.66;4403381;32;19994;-80
2022/04/30 03:48:39;;;;;;;;;;;;;;;11.94;52.31;100491.03;4402614;32;19982;-79
2022/04/30 03:51:06;;;;;;;;;;;;;;;12.15;51.84;100496.62;4400975;32;19982;-79
2022/04/30 03:53:33;;;;;;;;;;;;;;;12.10;51.97;100488.78;4401341;32;19993;-81
2022/04/30 03:56:00;;;;;;;;;;;;;;;12.02;52.06;100490.31;4396949;32;20276;-79
2022/04/30 03:58:28;;;;;;;;;;;;;;;12.04;52.09;100493.84;4404681;32;20343;-81
2022/04/30 04:00:54;;;;;;;;;;;;;;;11.85;52.97;100487.38;4401201;32;20000;-81
2022/04/30 04:03:21;;;;;;;;;;;;;;;12.01;52.20;100492.91;4402657;32;20275;-79
2022/04/30 04:05:49;;;;;;;;;;;;;;;12.06;52.17;100492.16;4413842;32;20366;-79
2022/04/30 04:08:16;;;;;;;;;;;;;;;12.12;52.14;100495.69;4413840;32;20043;-82
2022/04/30 04:10:43;;;;;;;;;;;;;;;12.16;52.11;100497.53;4415512;32;20740;-81
2022/04/30 04:18:41;;;;;;;;;;;;;;;12.01;53.15;100498.97;4414795;32;20000;-81
2022/04/30 04:21:09;;;;;;;;;;;;;;;12.23;52.86;100499.41;4406612;32;20028;-79
2022/04/30 04:26:21;;;;;;;;;;;;;;;11.98;54.09;100504.09;4414193;32;20015;-78
2022/04/30 04:28:48;;;;;;;;;;;;;;;12.38;52.81;100509.19;4415755;32;20011;-79
2022/04/30 04:31:17;;;;;;;;;;;;;;;12.47;52.73;100505.06;4415387;32;20053;-79
2022/04/30 04:33:44;;;;;;;;;;;;;;;12.44;53.49;100505.00;4414848;32;20081;-79
2022/04/30 04:36:11;;;;;;;;;;;;;;;12.65;52.63;100506.25;4415804;32;20326;-79
2022/04/30 04:38:38;;;;;;;;;;;;;;;12.70;52.86;100502.91;4414673;32;19990;-82
2022/04/30 04:41:05;;;;;;;;;;;;;;;12.59;53.49;100503.53;4403878;32;19970;-81
2022/04/30 04:43:32;;;;;;;;;;;;;;;12.79;53.29;100507.38;4415417;32;19988;-78
2022/04/30 04:45:59;;;;;;;;;;;;;;;12.88;53.69;100502.34;4415600;32;20042;-79
2022/04/30 04:48:26;;;;;;;;;;;;;;;12.96;53.38;100510.28;4412933;32;19978;-78
2022/04/30 04:50:53;;;;;;;;;;;;;;;13.06;53.12;100511.31;4412536;32;19985;-79
2022/04/30 04:53:20;;;;;;;;;;;;;;;13.08;53.07;100512.19;4414413;32;20025;-80
2022/04/30 04:55:47;;;;;;;;;;;;;;;13.13;52.83;100513.16;4425732;32;19981;-79
2022/04/30 04:58:14;;;;;;;;;;;;;;;13.29;53.29;100511.72;4414719;32;19978;-81
2022/04/30 05:00:41;;;;;;;;;;;;;;;13.39;53.18;100517.06;4414498;32;20052;-81
2022/04/30 05:03:08;;;;;;;;;;;;;;;13.42;52.98;100505.84;4413467;32;20032;-80
2022/04/30 05:05:35;;;;;;;;;;;;;;;13.60;52.79;100510.47;4424031;32;19987;-82
2022/04/30 05:08:03;;;;;;;;;;;;;;;13.73;51.97;100504.56;4415233;32;20311;-81
2022/04/30 05:10:31;;;;;;;;;;;;;;;13.80;51.46;100509.00;4414691;32;20020;-80
2022/04/30 05:12:57;;;;;;;;;;;;;;;13.83;51.83;100511.66;4412887;32;19978;-80
2022/04/30 05:15:25;;;;;;;;;;;;;;;14.01;52.09;100510.12;4413587;32;19997;-81
2022/04/30 05:17:52;;;;;;;;;;;;;;;14.15;51.94;100505.97;4396417;32;19989;-80
2022/04/30 05:20:19;;;;;;;;;;;;;;;14.27;51.85;100511.34;4403832;32;19983;-80
2022/04/30 05:23:06;;;;;;;;;;;;;;;14.41;52.33;100504.53;4411772;32;19989;-79
2022/04/30 05:25:33;;;;;;;;;;;;;;;14.49;51.12;100506.38;4414732;32;20024;-81
2022/04/30 05:28:00;;;;;;;;;;;;;;;14.65;50.68;100508.31;4415145;32;20025;-82
2022/04/30 05:30:27;;;;;;;;;;;;;;;14.79;49.56;100508.44;4415172;32;20021;-79
2022/04/30 05:32:54;;;;;;;;;;;;;;;14.89;48.98;100503.31;4401267;32;20003;-80
2022/04/30 05:35:20;;;;;;;;;;;;;;;15.07;48.52;100506.97;4414193;32;20024;-80
2022/04/30 05:37:47;;;;;;;;;;;;;;;15.24;48.59;100510.56;4410570;32;20024;-84
2022/04/30 05:40:14;;;;;;;;;;;;;;;15.29;48.88;100508.88;4407012;32;19978;-80
2022/04/30 05:42:41;;;;;;;;;;;;;;;15.20;48.36;100514.03;4414817;32;20500;-80
2022/04/30 05:45:08;;;;;;;;;;;;;;;15.57;47.87;100503.84;4413434;32;19986;-81
2022/04/30 05:47:36;;;;;;;;;;;;;;;15.85;46.88;100504.03;4415061;32;20057;-79
2022/04/30 05:50:09;;;;;;;;;;;;;;;15.77;46.69;100504.87;4414900;32;19983;-81
2022/04/30 05:52:36;;;;;;;;;;;;;;;15.99;45.17;100505.88;4413349;32;19978;-84
2022/04/30 05:55:03;;;;;;;;;;;;;;;15.94;45.41;100504.09;4412609;32;20316;-81
2022/04/30 05:57:31;;;;;;;;;;;;;;;16.18;45.82;100499.00;4412912;32;20019;-80
2022/04/30 05:59:59;;;;;;;;;;;;;;;16.45;43.69;100507.78;4414673;32;19984;-81
2022/04/30 06:02:26;;;;;;;;;;;;;;;16.64;41.47;100509.56;4414338;32;20009;-80
2022/04/30 06:04:53;;;;;;;;;;;;;;;16.72;40.75;100504.38;4413688;32;20004;-81
2022/04/30 06:07:20;;;;;;;;;;;;;;;16.70;40.79;100504.34;4414587;32;19994;-80
2022/04/30 06:09:49;;;;;;;;;;;;;;;16.90;40.44;100500.91;4413798;32;20031;-81
2022/04/30 06:12:16;;;;;;;;;;;;;;;16.89;40.56;100499.19;4415684;32;19974;-81
2022/04/30 06:14:44;;;;;;;;;;;;;;;16.97;39.33;100502.66;4416049;32;19981;-81
2022/04/30 06:17:11;;;;;;;;;;;;;;;17.19;39.48;100499.16;4416042;32;19997;-81
2022/04/30 06:19:38;;;;;;;;;;;;;;;17.37;39.50;100502.66;4417329;32;19978;-80
2022/04/30 06:22:05;;;;;;;;;;;;;;;17.44;37.84;100504.38;4414942;32;19986;-80
2022/04/30 06:24:32;;;;;;;;;;;;;;;17.65;38.58;100506.97;4416236;32;20045;-81
2022/04/30 06:26:59;;;;;;;;;;;;;;;17.87;37.60;100505.22;4416667;32;19974;-77
2022/04/30 06:29:26;;;;;;;;;;;;;;;17.80;36.71;100498.22;4417054;32;19977;-78
2022/04/30 06:31:52;;;;;;;;;;;;;;;18.09;37.14;100495.53;4409219;32;20001;-79
2022/04/30 06:34:20;;;;;;;;;;;;;;;18.36;36.80;100499.75;4409341;32;20461;-78
2022/04/30 06:36:47;;;;;;;;;;;;;;;18.64;36.51;100498.75;4369952;32;19999;-79
2022/04/30 06:39:13;;;;;;;;;;;;;;;18.96;35.37;100502.03;4412796;32;19984;-79
2022/04/30 06:41:40;;;;;;;;;;;;;;;19.19;34.35;100508.84;4416563;32;20311;-79
2022/04/30 06:44:07;;;;;;;;;;;;;;;19.56;33.33;100509.41;4416578;32;19985;-78
2022/04/30 06:46:34;;;;;;;;;;;;;;;19.80;34.41;100505.66;4417130;32;19986;-85
2022/04/30 06:49:01;;;;;;;;;;;;;;;20.16;33.37;100511.34;4402592;32;19993;-80
2022/04/30 06:51:28;;;;;;;;;;;;;;;20.40;32.20;100500.53;4397613;32;19986;-80
2022/04/30 06:59:28;;;;;;;;;;;;;;;20.73;32.13;100498.34;4410111;32;19986;-79
2022/04/30 07:02:02;;;;;;;;;;;;;;;21.23;31.12;100499.28;4416093;32;19997;-78
2022/04/30 07:04:30;;;;;;;;;;;;;;;21.55;30.54;100495.25;4412539;32;20001;-80
2022/04/30 07:06:58;;;;;;;;;;;;;;;21.32;31.23;100499.13;4416037;32;20413;-79
2022/04/30 07:09:24;;;;;;;;;;;;;;;21.89;30.95;100494.59;4414726;32;19973;-80
2022/04/30 07:11:51;;;;;;;;;;;;;;;22.24;29.85;100492.16;4415009;32;20029;-80
2022/04/30 07:14:18;;;;;;;;;;;;;;;22.45;30.15;100495.22;4415902;32;20035;-79
2022/04/30 07:16:45;;;;;;;;;;;;;;;22.41;29.76;100504.09;4415702;32;20338;-79
2022/04/30 07:19:12;;;;;;;;;;;;;;;22.67;30.01;100491.19;4415649;32;19977;-79
2022/04/30 07:21:39;;;;;;;;;;;;;;;22.37;28.89;100491.88;4416406;32;20040;-79
2022/04/30 07:24:06;;;;;;;;;;;;;;;22.65;29.48;100482.41;4415304;32;20052;-79
2022/04/30 07:26:33;;;;;;;;;;;;;;;22.73;29.25;100485.75;4415391;32;20053;-79
2022/04/30 07:29:00;;;;;;;;;;;;;;;22.98;28.58;100487.84;4416544;32;20326;-79
2022/04/30 07:31:27;;;;;;;;;;;;;;;23.21;28.49;100482.84;4415784;32;19988;-79
2022/04/30 07:33:54;;;;;;;;;;;;;;;23.10;28.50;100487.53;4415654;32;20012;-79
2022/04/30 07:36:21;;;;;;;;;;;;;;;23.40;28.75;100487.66;4410573;32;19989;-80
2022/04/30 07:38:48;;;;;;;;;;;;;;;23.20;28.67;100475.84;4389005;32;20038;-79
2022/04/30 07:41:15;;;;;;;;;;;;;;;23.41;28.91;100481.44;4400920;32;19990;-79
2022/04/30 07:43:42;;;;;;;;;;;;;;;23.71;28.37;100481.56;4400789;32;19978;-79
2022/04/30 07:46:09;;;;;;;;;;;;;;;23.85;27.55;100479.41;4400012;32;19986;-79
2022/04/30 07:48:38;;;;;;;;;;;;;;;24.02;28.18;100471.84;4400391;32;19974;-79
2022/04/30 07:51:13;;;;;;;;;;;;;;;24.07;27.53;100477.87;4400750;32;20001;-79
2022/04/30 07:53:41;;;;;;;;;;;;;;;24.39;28.13;100472.53;4399289;32;19982;-79
2022/04/30 07:56:09;;;;;;;;;;;;;;;24.04;28.66;100485.03;4398013;32;19986;-80
2022/04/30 07:58:36;;;;;;;;;;;;;;;24.38;27.90;100482.25;4400020;32;20446;-80
2022/04/30 08:01:03;;;;;;;;;;;;;;;24.56;26.86;100479.03;4400003;32;19990;-79
2022/04/30 08:03:32;;;;;;;;;;;;;;;24.71;26.38;100471.56;4400582;32;19974;-80
2022/04/30 08:05:59;;;;;;;;;;;;;;;24.01;28.42;100475.41;4400659;32;19990;-80
2022/04/30 08:08:26;;;;;;;;;;;;;;;24.46;26.89;100472.31;4399701;32;19974;-80
2022/04/30 08:10:53;;;;;;;;;;;;;;;24.26;27.34;100474.69;4399917;32;19978;-80
2022/04/30 08:13:20;;;;;;;;;;;;;;;24.77;26.92;100481.94;4399852;32;20966;-79
2022/04/30 08:15:46;;;;;;;;;;;;;;;24.19;27.25;100478.44;4400388;32;20461;-79
2022/04/30 08:18:14;;;;;;;;;;;;;;;24.44;27.01;100479.47;4399911;32;19996;-78
2022/04/30 08:20:40;;;;;;;;;;;;;;;24.54;26.62;100472.09;4401052;32;20058;-79
2022/04/30 08:23:07;;;;;;;;;;;;;;;24.40;27.13;100477.75;4399933;32;19991;-79
2022/04/30 08:25:35;;;;;;;;;;;;;;;24.40;27.23;100483.06;4400638;32;20432;-78
2022/04/30 08:28:02;;;;;;;;;;;;;;;24.28;26.64;100479.03;4235975;32;5001933;-78
2022/04/30 08:30:29;;;;;;;;;;;;;;;24.05;28.06;100471.75;4411889;32;20002;-79
2022/04/30 08:32:56;;;;;;;;;;;;;;;24.72;27.06;100478.56;4399606;32;19978;-78
2022/04/30 08:35:23;;;;;;;;;;;;;;;24.55;26.22;100477.31;4399926;32;20283;-79
2022/04/30 08:38:06;;;;;;;;;;;;;;;24.66;27.06;100468.16;4399875;32;19992;-79
2022/04/30 08:40:33;;;;;;;;;;;;;;;24.05;27.00;100471.75;4400774;32;19978;-78
2022/04/30 08:43:07;;;;;;;;;;;;;;;24.20;30.05;100474.87;4400132;32;19999;-79
2022/04/30 08:45:38;;;;;;;;;;;;;;;24.69;26.56;100468.06;4398749;32;19986;-78
2022/04/30 08:48:05;;;;;;;;;;;;;;;25.11;27.10;100464.91;4401005;32;20038;-79
2022/04/30 08:50:32;;;;;;;;;;;;;;;24.93;25.14;100466.44;4398762;32;19996;-79
2022/04/30 08:52:59;;;;;;;;;;;;;;;25.28;24.96;100462.59;4400309;32;19970;-78
2022/04/30 08:55:26;;;;;;;;;;;;;;;25.05;24.82;100464.22;4384193;32;19986;-78
2022/04/30 08:57:53;;;;;;;;;;;;;;;25.40;24.72;100467.50;4392131;32;20570;-79
2022/04/30 09:00:20;;;;;;;;;;;;;;;25.57;23.55;100458.06;4398853;32;19997;-79
2022/04/30 09:02:57;;;;;;;;;;;;;;;25.29;24.75;100459.03;4400096;32;20359;-79
2022/04/30 09:05:32;;;;;;;;;;;;;;;25.52;25.06;100450.25;4398431;32;19996;-79
2022/04/30 09:07:59;;;;;;;;;;;;;;;25.84;23.13;100451.75;4398207;32;20005;-78
2022/04/30 09:10:30;;;;;;;;;;;;;;;25.82;23.21;100447.47;4397918;32;20037;-79
2022/04/30 09:13:06;;;;;;;;;;;;;;;26.12;22.17;100453.38;4398218;32;20017;-78
2022/04/30 09:15:33;;;;;;;;;;;;;;;25.79;23.63;100448.41;4397155;32;20336;-79
2022/04/30 09:18:01;;;;;;;;;;;;;;;25.71;23.26;100447.81;4399556;32;20016;-79
2022/04/30 09:20:29;;;;;;;;;;;;;;;25.65;22.80;100429.47;4397814;32;20379;-79
2022/04/30 09:22:56;;;;;;;;;;;;;;;25.83;22.89;100434.13;4399771;32;19987;-78
2022/04/30 09:25:23;;;;;;;;;;;;;;;25.69;23.15;100436.41;4399380;32;20045;-78
2022/04/30 09:28:00;;;;;;;;;;;;;;;26.05;22.31;100441.28;4399480;32;19974;-79
2022/04/30 09:30:29;;;;;;;;;;;;;;;25.32;21.78;100427.13;4399594;32;19992;-79
2022/04/30 09:32:57;;;;;;;;;;;;;;;24.96;24.81;100427.44;4399939;32;20327;-79
2022/04/30 09:38:09;;;;;;;;;;;;;;;25.17;21.81;100422.34;4399435;32;19999;-79
2022/04/30 09:40:36;;;;;;;;;;;;;;;25.24;21.75;100423.91;4396362;32;20315;-78
2022/04/30 09:43:05;;;;;;;;;;;;;;;25.75;21.97;100421.13;4398422;32;20000;-78
2022/04/30 09:45:32;;;;;;;;;;;;;;;25.58;22.76;100412.06;4399411;32;19986;-79
2022/04/30 09:48:00;;;;;;;;;;;;;;;25.57;22.64;100416.50;4400089;32;19988;-78
2022/04/30 09:56:08;;;;;;;;;;;;;;;25.38;22.05;100416.31;4391550;32;20062;-79
2022/04/30 09:58:39;;;;;;;;;;;;;;;25.69;21.85;100404.59;4395309;32;20414;-78
2022/04/30 10:01:06;;;;;;;;;;;;;;;25.49;20.47;100403.53;4400862;32;19974;-79
2022/04/30 10:03:34;;;;;;;;;;;;;;;25.28;22.14;100399.00;4401417;32;20014;-79
2022/04/30 10:06:05;;;;;;;;;;;;;;;25.20;22.22;100401.06;4400589;32;20383;-79
2022/04/30 10:08:35;;;;;;;;;;;;;;;25.40;22.99;100395.03;4401236;32;19986;-79
2022/04/30 10:11:21;;;;;;;;;;;;;;;25.35;23.30;100400.50;4400395;32;20024;-78
2022/04/30 10:13:50;;;;;;;;;;;;;;;25.57;21.86;100384.69;4400858;32;20020;-78
2022/04/30 10:16:19;;;;;;;;;;;;;;;25.50;20.77;100378.75;4400245;32;19979;-78
2022/04/30 10:18:56;;;;;;;;;;;;;;;25.21;23.07;100381.59;4400862;32;20448;-79
2022/04/30 10:21:23;;;;;;;;;;;;;;;25.57;22.54;100378.53;4401720;32;20025;-79
2022/04/30 10:23:59;;;;;;;;;;;;;;;25.46;23.62;100377.16;4399606;32;20010;-78
2022/04/30 10:26:26;;;;;;;;;;;;;;;25.40;22.42;100382.66;4399807;32;19984;-78
2022/04/30 10:29:09;;;;;;;;;;;;;;;25.31;22.81;100377.69;4401906;32;19978;-78
2022/04/30 10:31:44;;;;;;;;;;;;;;;25.04;22.90;100379.50;4401559;32;20109;-79
2022/04/30 10:34:11;;;;;;;;;;;;;;;25.23;22.14;100382.41;4400983;32;20036;-78
2022/04/30 10:36:38;;;;;;;;;;;;;;;24.78;21.91;100380.41;4401119;32;19982;-79
2022/04/30 10:39:09;;;;;;;;;;;;;;;24.51;23.23;100375.13;4401024;32;20760;-80
2022/04/30 10:41:43;;;;;;;;;;;;;;;24.38;22.99;100379.06;4400473;32;19978;-78
2022/04/30 10:44:12;;;;;;;;;;;;;;;25.06;23.65;100367.94;4399607;32;20038;-78
2022/04/30 10:46:42;;;;;;;;;;;;;;;25.10;26.46;100367.81;4400973;32;20050;-78
2022/04/30 10:49:09;;;;;;;;;;;;;;;24.86;23.25;100365.13;4401226;32;20356;-78
2022/04/30 10:51:40;;;;;;;;;;;;;;;24.83;23.95;100355.50;4401209;32;20309;-78
2022/04/30 10:54:11;;;;;;;;;;;;;;;24.74;24.08;100360.25;4401101;32;20334;-79
2022/04/30 10:56:39;;;;;;;;;;;;;;;25.09;22.32;100360.81;4401360;32;19987;-79
2022/04/30 10:59:06;;;;;;;;;;;;;;;24.95;21.71;100353.31;4399039;32;20002;-79
2022/04/30 11:01:33;;;;;;;;;;;;;;;25.33;22.34;100359.94;4401429;32;19997;-79
2022/04/30 11:04:01;;;;;;;;;;;;;;;24.62;22.19;100350.06;4399522;32;19982;-80
2022/04/30 11:06:29;;;;;;;;;;;;;;;24.66;23.42;100347.25;4401327;32;20002;-78
2022/04/30 11:09:06;;;;;;;;;;;;;;;24.93;23.49;100350.75;4398376;32;20334;-81
2022/04/30 11:11:34;;;;;;;;;;;;;;;24.97;21.32;100344.41;4397240;32;20801;-80
2022/04/30 11:14:01;;;;;;;;;;;;;;;24.22;23.71;100340.75;4400254;32;20108;-81
2022/04/30 11:16:29;;;;;;;;;;;;;;;24.91;21.54;100339.31;4401170;32;20372;-79
2022/04/30 11:19:05;;;;;;;;;;;;;;;24.93;23.80;100329.56;4400974;32;19970;-78
2022/04/30 11:21:34;;;;;;;;;;;;;;;25.10;20.67;100320.12;4403422;32;20687;-80
2022/04/30 11:24:01;;;;;;;;;;;;;;;25.20;18.42;100322.41;4401944;32;19982;-81
2022/04/30 11:26:30;;;;;;;;;;;;;;;24.44;22.50;100325.97;4399985;32;20028;-79
2022/04/30 11:28:57;;;;;;;;;;;;;;;24.87;21.36;100334.22;4096035;32;10004163;-80
2022/04/30 11:31:24;;;;;;;;;;;;;;;25.09;21.82;100329.88;4386128;32;20009;-80
2022/04/30 11:33:51;;;;;;;;;;;;;;;25.12;20.65;100323.59;4385611;32;19975;-80
2022/04/30 11:36:18;;;;;;;;;;;;;;;25.32;20.50;100326.41;4380020;32;20001;-79
2022/04/30 11:38:52;;;;;;;;;;;;;;;25.14;20.06;100316.47;4380718;32;20077;-79
2022/04/30 11:41:19;;;;;;;;;;;;;;;25.34;20.60;100313.12;4383728;32;20262;-80
2022/04/30 11:43:56;;;;;;;;;;;;;;;25.04;22.50;100311.47;4400657;32;19986;-79
2022/04/30 11:46:22;;;;;;;;;;;;;;;25.39;21.28;100309.34;4400399;32;19996;-79
2022/04/30 11:48:49;;;;;;;;;;;;;;;25.25;19.77;100306.38;4401211;32;19983;-79
2022/04/30 11:51:16;;;;;;;;;;;;;;;24.93;20.46;100303.06;4386324;32;20024;-80
2022/04/30 11:53:43;;;;;;;;;;;;;;;24.49;20.73;100313.41;4397170;32;19986;-81
2022/04/30 11:56:10;;;;;;;;;;;;;;;24.37;21.81;100303.19;4400440;32;19985;-80
2022/04/30 11:58:41;;;;;;;;;;;;;;;24.79;20.14;100306.22;4394758;32;19986;-80
2022/04/30 12:01:18;;;;;;;;;;;;;;;24.83;21.94;100307.84;4392614;32;20021;-81
2022/04/30 12:03:46;;;;;;;;;;;;;;;24.43;20.65;100303.03;4398329;32;20056;-80
2022/04/30 12:06:14;;;;;;;;;;;;;;;25.35;19.14;100283.91;4394599;32;19986;-82
2022/04/30 12:08:40;;;;;;;;;;;;;;;25.59;18.72;100283.88;4391920;32;20500;-80
2022/04/30 12:11:07;;;;;;;;;;;;;;;25.52;20.91;100276.16;4407247;32;20437;-80
2022/04/30 12:13:34;;;;;;;;;;;;;;;25.38;20.67;100277.63;4394534;32;20312;-80
2022/04/30 12:16:02;;;;;;;;;;;;;;;25.31;19.91;100277.00;4396776;32;20037;-81
2022/04/30 12:26:58;;;;;;;;;;;;;;;24.73;19.86;100269.38;4397668;32;19989;-81
2022/04/30 12:29:25;;;;;;;;;;;;;;;24.67;21.19;100276.66;4401724;32;20328;-81
2022/04/30 12:31:52;;;;;;;;;;;;;;;24.88;21.48;100273.22;4392733;32;20010;-81
2022/04/30 12:34:27;;;;;;;;;;;;;;;24.81;20.88;100266.44;4408747;32;19986;-81
2022/04/30 12:36:55;;;;;;;;;;;;;;;25.25;20.45;100269.28;4393736;32;20017;-81
2022/04/30 12:39:23;;;;;;;;;;;;;;;24.72;20.38;100266.75;4407895;32;19996;-80
2022/04/30 12:41:51;;;;;;;;;;;;;;;24.92;20.82;100264.28;4394332;32;19974;-81
2022/04/30 12:44:18;;;;;;;;;;;;;;;24.83;20.98;100265.47;4402911;32;20267;-81
2022/04/30 12:46:45;;;;;;;;;;;;;;;24.40;22.62;100268.69;4406843;32;19995;-81
2022/04/30 12:49:13;;;;;;;;;;;;;;;24.19;22.31;100256.22;4392671;32;19994;-83
2022/04/30 12:51:40;;;;;;;;;;;;;;;24.44;21.17;100262.44;4391492;32;20028;-82
2022/04/30 12:54:09;;;;;;;;;;;;;;;24.39;21.78;100258.19;4392619;32;19982;-83
2022/04/30 12:56:36;;;;;;;;;;;;;;;24.32;20.16;100246.94;4395594;32;20367;-82
2022/04/30 12:59:03;;;;;;;;;;;;;;;24.41;22.22;100251.97;4390870;32;20000;-81
2022/04/30 13:01:31;;;;;;;;;;;;;;;24.20;21.34;100242.06;4390913;32;20017;-81
2022/04/30 13:03:58;;;;;;;;;;;;;;;24.39;22.61;100242.31;4392101;32;19997;-81
2022/04/30 13:06:25;;;;;;;;;;;;;;;24.62;21.25;100238.88;4397223;32;19992;-81
2022/04/30 13:14:23;;;;;;;;;;;;;;;24.36;22.05;100236.19;4396395;32;19986;-81
2022/04/30 13:16:50;;;;;;;;;;;;;;;23.65;22.59;100234.97;4395635;32;20032;-81
2022/04/30 13:19:17;;;;;;;;;;;;;;;23.51;24.61;100231.03;4405235;32;19989;-82
2022/04/30 13:21:47;;;;;;;;;;;;;;;23.93;22.31;100228.84;4395197;32;20009;-81
2022/04/30 13:24:14;;;;;;;;;;;;;;;23.46;22.60;100233.81;4395034;32;19975;-81
2022/04/30 13:26:42;;;;;;;;;;;;;;;24.04;22.21;100226.69;4396454;32;20029;-81
2022/04/30 13:29:11;;;;;;;;;;;;;;;23.85;22.62;100222.94;4393614;32;20343;-83
2022/04/30 13:31:39;;;;;;;;;;;;;;;24.10;22.80;100221.22;4401382;32;19970;-80